createdAt,value
2022-09-23T00:02:39.147Z,99.90
2022-09-23T00:07:42.378Z,99.90
2022-09-23T00:12:45.315Z,99.90
2022-09-23T00:17:49.598Z,99.90
2022-09-23T00:22:53.359Z,99.90
2022-09-23T00:27:56.752Z,99.90
2022-09-23T00:33:01.019Z,99.90
2022-09-23T00:38:04.145Z,99.90
2022-09-23T00:43:09.226Z,99.90
2022-09-23T00:48:16.987Z,99.90
2022-09-23T00:53:26.549Z,99.90
2022-09-23T00:58:32.631Z,99.90
2022-09-23T01:03:36.978Z,99.90
2022-09-23T01:08:40.527Z,99.90
2022-09-23T01:13:52.055Z,99.90
2022-09-23T01:19:05.513Z,99.90
2022-09-23T01:24:46.239Z,99.90
2022-09-23T01:30:18.772Z,99.90
2022-09-23T01:35:28.395Z,99.90
2022-09-23T01:40:40.258Z,99.90
2022-09-23T01:45:46.153Z,99.90
2022-09-23T01:50:57.707Z,99.90
2022-09-23T01:56:05.222Z,99.90
2022-09-23T02:01:11.641Z,99.90
2022-09-23T02:06:21.080Z,99.90
2022-09-23T02:11:24.759Z,99.90
2022-09-23T02:16:33.474Z,99.90
2022-09-23T02:21:42.146Z,99.90
2022-09-23T02:26:49.205Z,99.90
2022-09-23T02:31:58.237Z,99.90
2022-09-23T02:37:19.361Z,99.90
2022-09-23T02:42:25.811Z,99.90
2022-09-23T02:47:32.120Z,99.90
2022-09-23T02:52:38.154Z,99.90
2022-09-23T02:57:41.131Z,99.90
2022-09-23T03:02:57.630Z,99.90
2022-09-23T03:08:16.718Z,99.90
2022-09-23T03:13:29.861Z,99.90
2022-09-23T03:18:40.347Z,99.90
2022-09-23T03:23:46.350Z,99.90
2022-09-23T03:28:50.318Z,99.90
2022-09-23T03:33:57.002Z,99.90
2022-09-23T03:39:05.953Z,99.90
2022-09-23T03:44:10.623Z,99.90
2022-09-23T03:49:17.005Z,99.90
2022-09-23T03:54:21.606Z,99.90
2022-09-23T03:59:24.820Z,99.90
2022-09-23T04:04:28.280Z,99.90
2022-09-23T04:09:32.879Z,99.90
2022-09-23T04:14:35.970Z,99.90
2022-09-23T04:19:39.246Z,99.90
2022-09-23T04:24:43.890Z,99.90
2022-09-23T04:29:46.873Z,99.90
2022-09-23T04:34:49.885Z,99.90
2022-09-23T04:39:54.295Z,99.90
2022-09-23T04:44:57.993Z,99.90
2022-09-23T04:50:00.965Z,99.90
2022-09-23T04:55:10.517Z,99.90
2022-09-23T05:00:17.856Z,99.90
2022-09-23T05:05:22.427Z,99.90
2022-09-23T05:10:26.709Z,99.90
2022-09-23T05:15:29.710Z,99.90
2022-09-23T05:20:32.709Z,99.90
2022-09-23T05:25:38.451Z,99.90
2022-09-23T05:30:41.606Z,99.90
2022-09-23T05:35:47.310Z,99.90
2022-09-23T05:40:57.166Z,99.90
2022-09-23T05:46:08.248Z,99.90
2022-09-23T05:51:14.986Z,99.90
2022-09-23T05:56:21.205Z,99.90
2022-09-23T06:01:26.054Z,99.90
2022-09-23T06:06:30.823Z,99.90
2022-09-23T06:11:36.219Z,99.90
2022-09-23T06:16:39.126Z,99.90
2022-09-23T06:21:42.404Z,99.90
2022-09-23T06:26:47.879Z,99.90
2022-09-23T06:31:50.820Z,99.90
2022-09-23T06:36:55.567Z,99.90
2022-09-23T06:42:00.241Z,99.90
2022-09-23T06:47:03.551Z,99.90
2022-09-23T06:52:06.700Z,99.90
2022-09-23T06:57:11.261Z,99.90
2022-09-23T07:02:14.444Z,99.90
2022-09-23T07:07:18.677Z,99.90
2022-09-23T07:12:22.993Z,99.90
2022-09-23T07:17:26.176Z,99.90
2022-09-23T07:22:29.331Z,99.90
2022-09-23T07:27:33.701Z,99.90
2022-09-23T07:32:47.732Z,99.90
2022-09-23T07:37:51.870Z,97.80
2022-09-23T07:42:56.691Z,99.20
2022-09-23T07:48:00.011Z,94.10
2022-09-23T07:53:03.092Z,92.70
2022-09-23T07:58:07.437Z,92.10
2022-09-23T08:03:10.905Z,91.30
2022-09-23T08:08:14.236Z,90.00
2022-09-23T08:13:18.509Z,87.00
2022-09-23T08:18:21.474Z,80.20
2022-09-23T08:23:24.916Z,82.90
2022-09-23T08:28:29.417Z,80.00
2022-09-23T08:33:32.491Z,85.50
2022-09-23T08:38:35.898Z,79.60
2022-09-23T08:43:45.690Z,76.30
2022-09-23T08:48:50.106Z,75.90
2022-09-23T08:53:53.308Z,78.90
2022-09-23T08:59:04.111Z,74.40
2022-09-23T09:04:16.241Z,72.00
2022-09-23T09:09:23.840Z,70.50
2022-09-23T09:14:35.949Z,70.60
2022-09-23T09:19:52.679Z,66.50
2022-09-23T09:25:03.355Z,65.60
2022-09-23T09:30:14.430Z,61.80
2022-09-23T09:35:25.576Z,67.00
2022-09-23T09:40:28.746Z,63.20
2022-09-23T09:45:57.596Z,68.80
2022-09-23T09:51:18.740Z,73.40
2022-09-23T09:56:27.277Z,75.20
2022-09-23T10:01:33.854Z,75.00
2022-09-23T10:06:36.871Z,74.00
2022-09-23T10:11:41.245Z,72.90
2022-09-23T10:16:48.869Z,73.50
2022-09-23T10:21:56.772Z,72.40
2022-09-23T10:27:02.041Z,72.60
2022-09-23T10:32:32.607Z,73.60
2022-09-23T10:37:38.694Z,69.20
2022-09-23T10:43:18.922Z,71.60
2022-09-23T10:48:30.655Z,65.40
2022-09-23T10:53:44.687Z,61.90
2022-09-23T10:59:29.232Z,62.70
2022-09-23T11:05:11.469Z,64.10
2022-09-23T11:10:46.308Z,70.10
2022-09-23T11:16:01.457Z,66.40
2022-09-23T11:21:20.582Z,65.50
2022-09-23T11:26:36.598Z,65.90
2022-09-23T11:31:50.328Z,64.90
2022-09-23T11:36:57.535Z,65.10
2022-09-23T11:42:03.315Z,67.30
2022-09-23T11:47:09.160Z,65.40
2022-09-23T11:52:19.571Z,64.10
2022-09-23T11:57:40.779Z,59.40
2022-09-23T12:03:04.240Z,64.00
2022-09-23T12:08:17.940Z,60.60
2022-09-23T12:13:29.975Z,56.20
2022-09-23T12:18:51.051Z,53.60
2022-09-23T12:24:19.024Z,54.50
2022-09-23T12:29:25.673Z,52.60
2022-09-23T12:34:32.563Z,54.30
2022-09-23T12:39:38.536Z,51.30
2022-09-23T12:44:45.319Z,52.40
2022-09-23T12:49:50.800Z,54.90
2022-09-23T12:54:57.488Z,54.40
2022-09-23T13:00:22.483Z,56.20
2022-09-23T13:05:45.044Z,52.60
2022-09-23T13:10:52.401Z,54.60
2022-09-23T13:16:11.664Z,59.00
2022-09-23T13:21:17.781Z,56.40
2022-09-23T13:26:21.002Z,56.40
2022-09-23T13:31:25.578Z,59.10
2022-09-23T13:36:28.952Z,53.60
2022-09-23T13:41:31.923Z,52.60
2022-09-23T13:46:45.674Z,55.50
2022-09-23T13:51:48.628Z,55.30
2022-09-23T13:56:51.564Z,57.50
2022-09-23T14:02:06.936Z,55.50
2022-09-23T14:07:12.990Z,54.60
2022-09-23T14:12:22.052Z,55.30
2022-09-23T14:17:26.391Z,56.20
2022-09-23T14:22:31.030Z,57.60
2022-09-23T14:27:36.442Z,56.90
2022-09-23T14:32:41.570Z,57.90
2022-09-23T14:38:05.442Z,57.30
2022-09-23T14:43:16.811Z,57.30
2022-09-23T14:48:24.251Z,60.40
2022-09-23T14:53:37.428Z,58.20
2022-09-23T14:58:46.960Z,67.40
2022-09-23T15:03:55.614Z,70.00
2022-09-23T15:08:59.085Z,72.70
2022-09-23T15:14:33.098Z,74.90
2022-09-23T15:19:31.240Z,75.70
2022-09-23T15:24:37.187Z,76.60
2022-09-23T15:29:40.287Z,82.10
2022-09-23T15:34:45.055Z,83.10
2022-09-23T15:39:49.058Z,88.20
2022-09-23T15:44:52.113Z,88.20
2022-09-23T15:49:57.788Z,91.60
2022-09-23T15:55:01.149Z,94.70
2022-09-23T16:00:05.210Z,97.00
2022-09-23T16:05:22.436Z,99.40
2022-09-23T16:10:25.674Z,99.90
2022-09-23T16:15:30.464Z,99.90
2022-09-23T16:20:38.128Z,99.90
2022-09-23T16:25:41.152Z,99.90
2022-09-23T16:30:44.273Z,99.90
2022-09-23T16:35:49.128Z,99.90
2022-09-23T16:40:52.900Z,99.90
2022-09-23T16:45:56.301Z,99.90
2022-09-23T16:51:04.790Z,99.90
2022-09-23T16:56:09.733Z,99.90
2022-09-23T17:01:34.249Z,99.90
2022-09-23T17:06:43.258Z,99.90
2022-09-23T17:11:52.490Z,99.90
2022-09-23T17:16:58.704Z,99.90
2022-09-23T17:22:03.966Z,99.90
2022-09-23T17:27:07.145Z,99.90
2022-09-23T17:32:17.822Z,99.90
2022-09-23T17:37:23.249Z,99.90
2022-09-23T17:42:27.796Z,99.90
2022-09-23T17:47:33.878Z,99.90
2022-09-23T17:52:41.904Z,99.90
2022-09-23T17:57:45.002Z,99.90
2022-09-23T18:02:51.301Z,99.90
2022-09-23T18:07:55.768Z,99.90
2022-09-23T18:12:58.923Z,99.90
2022-09-23T18:18:04.760Z,99.90
2022-09-23T18:23:10.456Z,99.90
2022-09-23T18:28:13.480Z,99.90
2022-09-23T18:33:16.587Z,99.90
2022-09-23T18:38:21.314Z,99.90
2022-09-23T18:43:27.447Z,99.90
2022-09-23T18:48:54.510Z,99.90
2022-09-23T18:54:01.216Z,99.90
2022-09-23T18:59:06.313Z,99.90
2022-09-23T19:04:10.023Z,99.90
2022-09-23T19:09:15.869Z,99.90
2022-09-23T19:14:19.922Z,99.90
2022-09-23T19:19:24.552Z,99.90
2022-09-23T19:24:29.470Z,99.90
2022-09-23T19:29:33.400Z,99.90
2022-09-23T19:34:37.708Z,99.90
2022-09-23T19:39:42.394Z,99.90
2022-09-23T19:44:46.820Z,99.90
2022-09-23T19:49:49.896Z,99.90
2022-09-23T19:54:54.557Z,99.90
2022-09-23T19:59:57.505Z,99.90
2022-09-23T20:05:00.995Z,99.90
2022-09-23T20:10:06.807Z,99.90
2022-09-23T20:15:11.715Z,99.90
2022-09-23T20:20:15.796Z,99.90
2022-09-23T20:25:20.133Z,99.90
2022-09-23T20:30:23.265Z,99.90
2022-09-23T20:35:26.183Z,99.90
2022-09-23T20:40:30.540Z,99.90
2022-09-23T20:45:33.543Z,99.90
2022-09-23T20:50:37.275Z,99.90
2022-09-23T20:55:50.353Z,99.90
2022-09-23T21:00:53.800Z,99.90
2022-09-23T21:05:59.703Z,99.90
2022-09-23T21:11:05.814Z,99.90
2022-09-23T21:16:11.309Z,99.90
2022-09-23T21:21:14.793Z,99.90
2022-09-23T21:26:20.882Z,99.90
2022-09-23T21:31:26.151Z,99.90
2022-09-23T21:36:30.331Z,99.90
2022-09-23T21:41:34.959Z,99.90
2022-09-23T21:46:38.106Z,99.90
2022-09-23T21:51:41.578Z,99.90
2022-09-23T21:56:47.952Z,99.90
2022-09-23T22:01:54.189Z,99.90
2022-09-23T22:07:00.090Z,99.90
2022-09-23T22:12:12.664Z,99.90
2022-09-23T22:17:16.461Z,99.90
2022-09-23T22:22:19.521Z,99.90
2022-09-23T22:27:25.409Z,99.90
2022-09-23T22:32:41.159Z,99.90
2022-09-23T22:37:45.343Z,99.90
2022-09-23T22:42:49.701Z,99.90
2022-09-23T22:47:54.689Z,99.90
2022-09-23T22:52:57.663Z,99.90
2022-09-23T22:58:21.333Z,99.90
2022-09-23T23:03:27.017Z,99.90
2022-09-23T23:08:31.084Z,99.90
2022-09-23T23:13:36.146Z,99.90
2022-09-23T23:18:41.199Z,99.90
2022-09-23T23:23:46.312Z,99.90
2022-09-23T23:28:52.072Z,99.90
2022-09-23T23:33:55.328Z,99.90
2022-09-23T23:38:58.565Z,99.90
2022-09-23T23:44:03.018Z,99.90
2022-09-23T23:49:06.672Z,99.90
2022-09-23T23:54:11.784Z,99.90
2022-09-23T23:59:16.230Z,99.90
